Estación Meteorológica Peña el Pijo (Robertgarden) [ 01/30/23 14:29:06 CET ]

Fecha Hora Presion(HPa) Temp (°C) Humedad % Rocio (°C) Viento ( m/s) Direccion Lluvia 1Hora(mm) Lluvia 24H(mm) LLuvia Total(mm)
2010-Dec-20 01:01:16 1002.800 4.6 82 1.8         16.57
2010-Dec-20 02:04:22 1003.100 4.8 82 1.9         16.57
2010-Dec-20 03:01:11 1003.200 4.0 82 1.2         16.57
2010-Dec-20 04:01:12 1003.200 3.3 83 0.7         16.57
2010-Dec-20 05:01:14 1002.600 2.7 84 0.2 1.7 SSE     16.57
2010-Dec-20 06:01:18 1002.700 2.5 84 0.0         16.57
2010-Dec-20 07:01:12 1003.300 2.4 83 -0.2         16.57
2010-Dec-20 08:01:14 1003.700 2.2 83 -0.4         16.57
2010-Dec-20 09:01:19 1004.100 2.9 82 0.1 1.7 S     16.57
2010-Dec-20 10:01:16 1004.400 4.0 79 0.7         16.57
2010-Dec-20 11:01:17 1004.500 5.2 76 1.3         16.57
2010-Dec-20 12:01:14 1004.300 6.6 72 1.9         16.57
2010-Dec-20 13:01:15 1003.600 8.6 64 2.1 0.8 NE     16.57
2010-Dec-20 14:01:14 1003.500 12.6 50 2.4         16.57
2010-Dec-20 15:01:14 1003.000 12.6 50 2.4         16.57
2010-Dec-20 16:01:14 1002.800 11.3 48 0.7         16.57
2010-Dec-20 17:01:14 1003.100 9.9 51 0.2         16.57
2010-Dec-20 18:01:14 1003.100 7.1 64 0.7         16.57
2010-Dec-20 19:01:16 1003.400 4.1 75 0.0         16.57
2010-Dec-20 20:01:18 1003.200 2.9 80 -0.2         16.57
2010-Dec-20 21:01:17 1002.800 3.8 81 0.9         16.57
2010-Dec-20 22:01:14 1002.300 3.9 82 1.1         16.57
2010-Dec-20 23:01:19 1001.200 4.5 83 1.8         16.57

Temperatura Máxima:12°    Temperatura Mínima:
Presión Máxima:1004.500 Hpa    Presión Mínima:1001.200 Hpa


Volver